sensor_id;sensor_type;location;lat;lon;timestamp;P1;durP1;ratioP1;P2;durP2;ratioP2
8628;SDS011;4352;49.404;11.092;2022-11-14T00:00:00;29.50;;;16.83;;
8628;SDS011;4352;49.404;11.092;2022-11-14T00:02:28;29.43;;;16.53;;
8628;SDS011;4352;49.404;11.092;2022-11-14T00:04:55;31.30;;;17.97;;
8628;SDS011;4352;49.404;11.092;2022-11-14T00:07:22;28.27;;;15.13;;
8628;SDS011;4352;49.404;11.092;2022-11-14T00:09:49;29.07;;;16.07;;
8628;SDS011;4352;49.404;11.092;2022-11-14T00:12:17;29.27;;;16.70;;
8628;SDS011;4352;49.404;11.092;2022-11-14T00:14:44;28.37;;;15.20;;
8628;SDS011;4352;49.404;11.092;2022-11-14T00:17:11;29.63;;;16.67;;
8628;SDS011;4352;49.404;11.092;2022-11-14T00:19:39;25.43;;;15.70;;
8628;SDS011;4352;49.404;11.092;2022-11-14T00:22:06;25.53;;;15.13;;
8628;SDS011;4352;49.404;11.092;2022-11-14T00:24:33;27.10;;;15.10;;
8628;SDS011;4352;49.404;11.092;2022-11-14T00:27:00;28.80;;;15.97;;
8628;SDS011;4352;49.404;11.092;2022-11-14T00:29:28;27.97;;;15.43;;
8628;SDS011;4352;49.404;11.092;2022-11-14T00:31:55;27.00;;;15.47;;
8628;SDS011;4352;49.404;11.092;2022-11-14T00:34:22;28.17;;;15.77;;
8628;SDS011;4352;49.404;11.092;2022-11-14T00:36:50;26.70;;;15.07;;
8628;SDS011;4352;49.404;11.092;2022-11-14T00:39:17;27.70;;;14.63;;
8628;SDS011;4352;49.404;11.092;2022-11-14T00:41:44;28.13;;;15.67;;
8628;SDS011;4352;49.404;11.092;2022-11-14T00:44:12;30.77;;;16.17;;
8628;SDS011;4352;49.404;11.092;2022-11-14T00:46:39;26.20;;;14.60;;
8628;SDS011;4352;49.404;11.092;2022-11-14T00:49:07;31.40;;;15.60;;
8628;SDS011;4352;49.404;11.092;2022-11-14T00:51:34;25.33;;;13.80;;
8628;SDS011;4352;49.404;11.092;2022-11-14T00:54:03;26.73;;;14.93;;
8628;SDS011;4352;49.404;11.092;2022-11-14T00:56:31;25.40;;;14.67;;
8628;SDS011;4352;49.404;11.092;2022-11-14T00:58:58;26.43;;;14.73;;
8628;SDS011;4352;49.404;11.092;2022-11-14T01:01:25;26.40;;;14.77;;
8628;SDS011;4352;49.404;11.092;2022-11-14T01:03:52;26.13;;;14.80;;
8628;SDS011;4352;49.404;11.092;2022-11-14T01:06:19;25.37;;;14.40;;
8628;SDS011;4352;49.404;11.092;2022-11-14T01:08:48;24.37;;;13.33;;
8628;SDS011;4352;49.404;11.092;2022-11-14T01:11:17;24.03;;;13.67;;
8628;SDS011;4352;49.404;11.092;2022-11-14T01:13:44;26.63;;;14.33;;
8628;SDS011;4352;49.404;11.092;2022-11-14T01:16:12;28.37;;;14.50;;
8628;SDS011;4352;49.404;11.092;2022-11-14T01:18:39;28.87;;;15.77;;
8628;SDS011;4352;49.404;11.092;2022-11-14T01:21:07;29.20;;;15.43;;
8628;SDS011;4352;49.404;11.092;2022-11-14T01:23:34;29.07;;;15.40;;
8628;SDS011;4352;49.404;11.092;2022-11-14T01:26:02;25.10;;;15.30;;
8628;SDS011;4352;49.404;11.092;2022-11-14T01:28:31;28.30;;;15.27;;
8628;SDS011;4352;49.404;11.092;2022-11-14T01:31:06;28.13;;;15.87;;
8628;SDS011;4352;49.404;11.092;2022-11-14T01:33:33;30.13;;;16.07;;
8628;SDS011;4352;49.404;11.092;2022-11-14T01:36:00;28.70;;;15.63;;
8628;SDS011;4352;49.404;11.092;2022-11-14T01:38:27;26.20;;;14.70;;
8628;SDS011;4352;49.404;11.092;2022-11-14T01:40:54;28.93;;;16.00;;
8628;SDS011;4352;49.404;11.092;2022-11-14T01:43:22;26.27;;;14.97;;
8628;SDS011;4352;49.404;11.092;2022-11-14T01:45:52;27.50;;;15.27;;
8628;SDS011;4352;49.404;11.092;2022-11-14T01:48:20;27.13;;;15.10;;
8628;SDS011;4352;49.404;11.092;2022-11-14T01:50:49;28.87;;;15.40;;
8628;SDS011;4352;49.404;11.092;2022-11-14T01:53:18;28.13;;;15.93;;
8628;SDS011;4352;49.404;11.092;2022-11-14T01:55:45;29.83;;;15.77;;
8628;SDS011;4352;49.404;11.092;2022-11-14T01:58:13;29.23;;;15.30;;
8628;SDS011;4352;49.404;11.092;2022-11-14T02:00:40;26.40;;;14.30;;
8628;SDS011;4352;49.404;11.092;2022-11-14T02:03:09;24.13;;;14.90;;
8628;SDS011;4352;49.404;11.092;2022-11-14T02:05:37;27.57;;;15.30;;
8628;SDS011;4352;49.404;11.092;2022-11-14T02:08:05;28.83;;;15.10;;
8628;SDS011;4352;49.404;11.092;2022-11-14T02:10:32;28.17;;;14.77;;
8628;SDS011;4352;49.404;11.092;2022-11-14T02:12:59;26.53;;;14.63;;
8628;SDS011;4352;49.404;11.092;2022-11-14T02:15:26;28.47;;;14.90;;
8628;SDS011;4352;49.404;11.092;2022-11-14T02:17:53;26.67;;;14.27;;
8628;SDS011;4352;49.404;11.092;2022-11-14T02:20:22;31.40;;;15.23;;
8628;SDS011;4352;49.404;11.092;2022-11-14T02:22:52;27.93;;;15.07;;
8628;SDS011;4352;49.404;11.092;2022-11-14T02:25:19;24.10;;;14.00;;
8628;SDS011;4352;49.404;11.092;2022-11-14T02:27:46;29.73;;;15.00;;
8628;SDS011;4352;49.404;11.092;2022-11-14T02:30:14;26.83;;;14.77;;
8628;SDS011;4352;49.404;11.092;2022-11-14T02:32:42;29.37;;;15.63;;
8628;SDS011;4352;49.404;11.092;2022-11-14T02:35:09;29.50;;;15.63;;
8628;SDS011;4352;49.404;11.092;2022-11-14T02:37:39;28.63;;;15.63;;
8628;SDS011;4352;49.404;11.092;2022-11-14T02:40:07;29.33;;;16.30;;
8628;SDS011;4352;49.404;11.092;2022-11-14T02:42:34;28.63;;;15.27;;
8628;SDS011;4352;49.404;11.092;2022-11-14T02:45:01;31.27;;;15.47;;
8628;SDS011;4352;49.404;11.092;2022-11-14T02:47:28;28.30;;;15.20;;
8628;SDS011;4352;49.404;11.092;2022-11-14T02:49:55;29.17;;;15.37;;
8628;SDS011;4352;49.404;11.092;2022-11-14T02:52:22;26.37;;;15.27;;
8628;SDS011;4352;49.404;11.092;2022-11-14T02:54:51;27.60;;;14.67;;
8628;SDS011;4352;49.404;11.092;2022-11-14T02:57:18;27.73;;;14.80;;
8628;SDS011;4352;49.404;11.092;2022-11-14T02:59:45;27.90;;;15.13;;
8628;SDS011;4352;49.404;11.092;2022-11-14T03:02:12;29.60;;;15.83;;
8628;SDS011;4352;49.404;11.092;2022-11-14T03:04:39;27.20;;;14.73;;
8628;SDS011;4352;49.404;11.092;2022-11-14T03:07:06;26.97;;;14.00;;
8628;SDS011;4352;49.404;11.092;2022-11-14T03:09:33;25.80;;;14.60;;
8628;SDS011;4352;49.404;11.092;2022-11-14T03:12:02;26.50;;;14.83;;
8628;SDS011;4352;49.404;11.092;2022-11-14T03:14:29;28.33;;;14.17;;
8628;SDS011;4352;49.404;11.092;2022-11-14T03:16:56;30.33;;;14.93;;
8628;SDS011;4352;49.404;11.092;2022-11-14T03:19:23;31.40;;;16.33;;
8628;SDS011;4352;49.404;11.092;2022-11-14T03:21:50;28.77;;;15.60;;
8628;SDS011;4352;49.404;11.092;2022-11-14T03:24:18;29.00;;;15.60;;
8628;SDS011;4352;49.404;11.092;2022-11-14T03:26:45;31.50;;;16.27;;
8628;SDS011;4352;49.404;11.092;2022-11-14T03:29:13;30.67;;;16.07;;
8628;SDS011;4352;49.404;11.092;2022-11-14T03:31:40;24.93;;;14.63;;
8628;SDS011;4352;49.404;11.092;2022-11-14T03:34:08;27.53;;;14.93;;
8628;SDS011;4352;49.404;11.092;2022-11-14T03:36:35;27.83;;;14.80;;
8628;SDS011;4352;49.404;11.092;2022-11-14T03:39:03;29.87;;;15.23;;
8628;SDS011;4352;49.404;11.092;2022-11-14T03:41:30;27.70;;;14.53;;
8628;SDS011;4352;49.404;11.092;2022-11-14T03:43:57;22.83;;;13.30;;
8628;SDS011;4352;49.404;11.092;2022-11-14T03:46:26;25.63;;;14.30;;
8628;SDS011;4352;49.404;11.092;2022-11-14T03:48:53;26.57;;;14.53;;
8628;SDS011;4352;49.404;11.092;2022-11-14T03:51:20;29.40;;;15.03;;
8628;SDS011;4352;49.404;11.092;2022-11-14T03:53:47;23.80;;;13.23;;
8628;SDS011;4352;49.404;11.092;2022-11-14T03:56:14;25.13;;;13.77;;
8628;SDS011;4352;49.404;11.092;2022-11-14T03:58:41;29.87;;;13.87;;
8628;SDS011;4352;49.404;11.092;2022-11-14T04:01:08;23.87;;;13.83;;
8628;SDS011;4352;49.404;11.092;2022-11-14T04:03:37;27.23;;;14.37;;
8628;SDS011;4352;49.404;11.092;2022-11-14T04:06:04;24.10;;;13.73;;
8628;SDS011;4352;49.404;11.092;2022-11-14T04:08:31;25.90;;;13.93;;
8628;SDS011;4352;49.404;11.092;2022-11-14T04:10:58;23.93;;;13.63;;
8628;SDS011;4352;49.404;11.092;2022-11-14T04:13:25;26.77;;;14.20;;
8628;SDS011;4352;49.404;11.092;2022-11-14T04:15:53;25.37;;;14.27;;
8628;SDS011;4352;49.404;11.092;2022-11-14T04:18:21;26.03;;;14.33;;
8628;SDS011;4352;49.404;11.092;2022-11-14T04:20:49;22.00;;;12.77;;
8628;SDS011;4352;49.404;11.092;2022-11-14T04:23:16;26.13;;;15.00;;
8628;SDS011;4352;49.404;11.092;2022-11-14T04:25:44;25.30;;;13.63;;
8628;SDS011;4352;49.404;11.092;2022-11-14T04:28:11;24.40;;;14.13;;
8628;SDS011;4352;49.404;11.092;2022-11-14T04:30:38;28.13;;;14.03;;
8628;SDS011;4352;49.404;11.092;2022-11-14T04:33:06;28.07;;;14.57;;
8628;SDS011;4352;49.404;11.092;2022-11-14T04:35:33;24.97;;;13.10;;
8628;SDS011;4352;49.404;11.092;2022-11-14T04:38:02;25.33;;;13.77;;
8628;SDS011;4352;49.404;11.092;2022-11-14T04:40:29;25.20;;;13.07;;
8628;SDS011;4352;49.404;11.092;2022-11-14T04:42:56;25.33;;;13.50;;
8628;SDS011;4352;49.404;11.092;2022-11-14T04:45:23;24.53;;;13.60;;
8628;SDS011;4352;49.404;11.092;2022-11-14T04:47:50;19.97;;;12.93;;
8628;SDS011;4352;49.404;11.092;2022-11-14T04:50:17;25.80;;;14.60;;
8628;SDS011;4352;49.404;11.092;2022-11-14T04:52:44;26.67;;;13.87;;
8628;SDS011;4352;49.404;11.092;2022-11-14T04:55:13;23.60;;;13.30;;
8628;SDS011;4352;49.404;11.092;2022-11-14T04:57:40;22.83;;;12.90;;
8628;SDS011;4352;49.404;11.092;2022-11-14T05:00:08;25.67;;;13.67;;
8628;SDS011;4352;49.404;11.092;2022-11-14T05:02:35;24.60;;;13.23;;
8628;SDS011;4352;49.404;11.092;2022-11-14T05:05:02;21.00;;;12.90;;
8628;SDS011;4352;49.404;11.092;2022-11-14T05:07:39;26.57;;;14.27;;
8628;SDS011;4352;49.404;11.092;2022-11-14T05:10:07;23.77;;;13.30;;
8628;SDS011;4352;49.404;11.092;2022-11-14T05:12:34;25.53;;;14.00;;
8628;SDS011;4352;49.404;11.092;2022-11-14T05:15:01;26.23;;;14.30;;
8628;SDS011;4352;49.404;11.092;2022-11-14T05:17:28;31.60;;;16.27;;
8628;SDS011;4352;49.404;11.092;2022-11-14T05:19:56;32.30;;;18.00;;
8628;SDS011;4352;49.404;11.092;2022-11-14T05:22:23;27.20;;;16.23;;
8628;SDS011;4352;49.404;11.092;2022-11-14T05:24:51;32.07;;;17.63;;
8628;SDS011;4352;49.404;11.092;2022-11-14T05:27:18;30.27;;;16.90;;
8628;SDS011;4352;49.404;11.092;2022-11-14T05:29:46;30.70;;;16.93;;
8628;SDS011;4352;49.404;11.092;2022-11-14T05:32:14;32.57;;;17.93;;
8628;SDS011;4352;49.404;11.092;2022-11-14T05:34:41;31.20;;;17.63;;
8628;SDS011;4352;49.404;11.092;2022-11-14T05:37:08;29.90;;;16.77;;
8628;SDS011;4352;49.404;11.092;2022-11-14T05:39:36;32.93;;;17.17;;
8628;SDS011;4352;49.404;11.092;2022-11-14T05:42:04;31.30;;;17.50;;
8628;SDS011;4352;49.404;11.092;2022-11-14T05:44:31;32.57;;;17.60;;
8628;SDS011;4352;49.404;11.092;2022-11-14T05:46:58;31.57;;;18.30;;
8628;SDS011;4352;49.404;11.092;2022-11-14T05:49:25;41.57;;;20.03;;
8628;SDS011;4352;49.404;11.092;2022-11-14T05:51:53;34.23;;;17.07;;
8628;SDS011;4352;49.404;11.092;2022-11-14T05:54:20;29.20;;;17.23;;
8628;SDS011;4352;49.404;11.092;2022-11-14T05:56:47;31.17;;;16.27;;
8628;SDS011;4352;49.404;11.092;2022-11-14T05:59:15;33.03;;;17.07;;
8628;SDS011;4352;49.404;11.092;2022-11-14T06:01:42;33.20;;;17.43;;
8628;SDS011;4352;49.404;11.092;2022-11-14T06:04:09;28.53;;;16.10;;
8628;SDS011;4352;49.404;11.092;2022-11-14T06:06:37;31.73;;;16.47;;
8628;SDS011;4352;49.404;11.092;2022-11-14T06:09:04;34.00;;;17.60;;
8628;SDS011;4352;49.404;11.092;2022-11-14T06:11:31;32.67;;;18.07;;
8628;SDS011;4352;49.404;11.092;2022-11-14T06:13:58;33.80;;;17.37;;
8628;SDS011;4352;49.404;11.092;2022-11-14T06:16:26;31.63;;;15.70;;
8628;SDS011;4352;49.404;11.092;2022-11-14T06:18:53;28.13;;;16.97;;
8628;SDS011;4352;49.404;11.092;2022-11-14T06:21:21;33.40;;;19.23;;
8628;SDS011;4352;49.404;11.092;2022-11-14T06:23:49;33.67;;;18.20;;
8628;SDS011;4352;49.404;11.092;2022-11-14T06:26:19;33.13;;;17.50;;
8628;SDS011;4352;49.404;11.092;2022-11-14T06:28:46;32.43;;;17.27;;
8628;SDS011;4352;49.404;11.092;2022-11-14T06:31:13;29.87;;;17.83;;
8628;SDS011;4352;49.404;11.092;2022-11-14T06:33:42;34.17;;;17.80;;
8628;SDS011;4352;49.404;11.092;2022-11-14T06:36:09;36.53;;;18.47;;
8628;SDS011;4352;49.404;11.092;2022-11-14T06:38:37;42.87;;;18.27;;
8628;SDS011;4352;49.404;11.092;2022-11-14T06:41:04;31.23;;;17.73;;
8628;SDS011;4352;49.404;11.092;2022-11-14T06:43:32;33.13;;;18.47;;
8628;SDS011;4352;49.404;11.092;2022-11-14T06:45:59;29.50;;;16.63;;
8628;SDS011;4352;49.404;11.092;2022-11-14T06:48:26;38.30;;;18.87;;
8628;SDS011;4352;49.404;11.092;2022-11-14T06:50:56;34.97;;;17.83;;
8628;SDS011;4352;49.404;11.092;2022-11-14T06:53:23;34.03;;;17.57;;
8628;SDS011;4352;49.404;11.092;2022-11-14T06:55:52;32.67;;;17.97;;
8628;SDS011;4352;49.404;11.092;2022-11-14T06:58:19;32.10;;;18.13;;
8628;SDS011;4352;49.404;11.092;2022-11-14T07:00:46;35.47;;;19.73;;
8628;SDS011;4352;49.404;11.092;2022-11-14T07:03:13;35.43;;;19.97;;
8628;SDS011;4352;49.404;11.092;2022-11-14T07:05:40;38.23;;;19.93;;
8628;SDS011;4352;49.404;11.092;2022-11-14T07:08:09;34.50;;;20.17;;
8628;SDS011;4352;49.404;11.092;2022-11-14T07:10:36;33.27;;;18.30;;
8628;SDS011;4352;49.404;11.092;2022-11-14T07:13:03;32.97;;;19.03;;
8628;SDS011;4352;49.404;11.092;2022-11-14T07:15:30;35.20;;;18.23;;
8628;SDS011;4352;49.404;11.092;2022-11-14T07:17:57;31.07;;;17.90;;
8628;SDS011;4352;49.404;11.092;2022-11-14T07:20:25;37.43;;;19.40;;
8628;SDS011;4352;49.404;11.092;2022-11-14T07:22:52;31.33;;;18.93;;
8628;SDS011;4352;49.404;11.092;2022-11-14T07:25:20;32.27;;;19.63;;
8628;SDS011;4352;49.404;11.092;2022-11-14T07:27:47;39.20;;;19.50;;
8628;SDS011;4352;49.404;11.092;2022-11-14T07:30:15;33.57;;;18.33;;
8628;SDS011;4352;49.404;11.092;2022-11-14T07:32:42;30.23;;;17.50;;
8628;SDS011;4352;49.404;11.092;2022-11-14T07:35:09;30.10;;;16.70;;
8628;SDS011;4352;49.404;11.092;2022-11-14T07:37:36;37.20;;;19.40;;
8628;SDS011;4352;49.404;11.092;2022-11-14T07:40:03;32.17;;;17.73;;
8628;SDS011;4352;49.404;11.092;2022-11-14T07:42:32;32.20;;;18.53;;
8628;SDS011;4352;49.404;11.092;2022-11-14T07:44:59;33.37;;;19.33;;
8628;SDS011;4352;49.404;11.092;2022-11-14T07:47:26;31.00;;;18.77;;
8628;SDS011;4352;49.404;11.092;2022-11-14T07:49:53;34.73;;;19.57;;
8628;SDS011;4352;49.404;11.092;2022-11-14T07:52:20;34.83;;;20.20;;
8628;SDS011;4352;49.404;11.092;2022-11-14T07:54:47;36.53;;;20.17;;
8628;SDS011;4352;49.404;11.092;2022-11-14T07:57:14;34.37;;;19.67;;
8628;SDS011;4352;49.404;11.092;2022-11-14T07:59:43;34.20;;;18.93;;
8628;SDS011;4352;49.404;11.092;2022-11-14T08:02:10;37.20;;;21.27;;
8628;SDS011;4352;49.404;11.092;2022-11-14T08:04:39;32.43;;;18.60;;
8628;SDS011;4352;49.404;11.092;2022-11-14T08:07:06;32.53;;;19.00;;
8628;SDS011;4352;49.404;11.092;2022-11-14T08:09:33;31.90;;;19.23;;
8628;SDS011;4352;49.404;11.092;2022-11-14T08:12:00;30.43;;;19.23;;
8628;SDS011;4352;49.404;11.092;2022-11-14T08:14:27;29.67;;;18.60;;
8628;SDS011;4352;49.404;11.092;2022-11-14T08:16:56;32.43;;;18.70;;
8628;SDS011;4352;49.404;11.092;2022-11-14T08:19:23;33.97;;;19.10;;
8628;SDS011;4352;49.404;11.092;2022-11-14T08:21:50;26.23;;;16.63;;
8628;SDS011;4352;49.404;11.092;2022-11-14T08:24:17;25.03;;;16.87;;
8628;SDS011;4352;49.404;11.092;2022-11-14T08:26:44;25.60;;;17.40;;
8628;SDS011;4352;49.404;11.092;2022-11-14T08:29:11;27.47;;;15.97;;
8628;SDS011;4352;49.404;11.092;2022-11-14T08:31:38;23.73;;;15.53;;
8628;SDS011;4352;49.404;11.092;2022-11-14T08:34:07;24.60;;;16.20;;
8628;SDS011;4352;49.404;11.092;2022-11-14T08:36:34;27.87;;;16.57;;
8628;SDS011;4352;49.404;11.092;2022-11-14T08:39:01;21.33;;;15.83;;
8628;SDS011;4352;49.404;11.092;2022-11-14T08:41:28;25.30;;;15.40;;
8628;SDS011;4352;49.404;11.092;2022-11-14T08:43:55;24.10;;;14.93;;
8628;SDS011;4352;49.404;11.092;2022-11-14T08:46:22;20.27;;;14.43;;
8628;SDS011;4352;49.404;11.092;2022-11-14T08:48:49;19.10;;;13.77;;
8628;SDS011;4352;49.404;11.092;2022-11-14T08:51:18;17.47;;;13.73;;
8628;SDS011;4352;49.404;11.092;2022-11-14T08:53:45;16.20;;;11.47;;
8628;SDS011;4352;49.404;11.092;2022-11-14T08:56:12;13.67;;;9.40;;
8628;SDS011;4352;49.404;11.092;2022-11-14T08:58:39;10.30;;;8.23;;
8628;SDS011;4352;49.404;11.092;2022-11-14T09:01:06;10.90;;;7.90;;
8628;SDS011;4352;49.404;11.092;2022-11-14T09:03:33;8.53;;;7.70;;
8628;SDS011;4352;49.404;11.092;2022-11-14T09:06:01;9.50;;;8.53;;
8628;SDS011;4352;49.404;11.092;2022-11-14T09:08:30;9.60;;;8.23;;
8628;SDS011;4352;49.404;11.092;2022-11-14T09:10:58;11.23;;;7.97;;
8628;SDS011;4352;49.404;11.092;2022-11-14T09:13:26;8.60;;;7.47;;
8628;SDS011;4352;49.404;11.092;2022-11-14T09:15:53;8.07;;;7.20;;
8628;SDS011;4352;49.404;11.092;2022-11-14T09:18:20;8.10;;;7.30;;
8628;SDS011;4352;49.404;11.092;2022-11-14T09:20:47;8.30;;;7.50;;
8628;SDS011;4352;49.404;11.092;2022-11-14T09:23:15;7.50;;;6.77;;
8628;SDS011;4352;49.404;11.092;2022-11-14T09:25:43;8.47;;;6.57;;
8628;SDS011;4352;49.404;11.092;2022-11-14T09:28:10;8.60;;;7.60;;
8628;SDS011;4352;49.404;11.092;2022-11-14T09:30:37;8.67;;;7.17;;
8628;SDS011;4352;49.404;11.092;2022-11-14T09:33:05;9.17;;;7.07;;
8628;SDS011;4352;49.404;11.092;2022-11-14T09:35:32;9.93;;;7.53;;
8628;SDS011;4352;49.404;11.092;2022-11-14T09:38:02;8.73;;;7.27;;
8628;SDS011;4352;49.404;11.092;2022-11-14T09:40:29;7.53;;;6.80;;
8628;SDS011;4352;49.404;11.092;2022-11-14T09:43:04;7.30;;;6.53;;
8628;SDS011;4352;49.404;11.092;2022-11-14T09:45:37;7.63;;;6.83;;
8628;SDS011;4352;49.404;11.092;2022-11-14T09:48:09;7.37;;;6.67;;
8628;SDS011;4352;49.404;11.092;2022-11-14T09:50:39;7.03;;;6.33;;
8628;SDS011;4352;49.404;11.092;2022-11-14T09:53:09;7.17;;;6.47;;
8628;SDS011;4352;49.404;11.092;2022-11-14T09:55:37;7.05;;;6.35;;
8628;SDS011;4352;49.404;11.092;2022-11-14T09:58:14;7.03;;;5.88;;
8628;SDS011;4352;49.404;11.092;2022-11-14T10:00:44;6.80;;;6.20;;
8628;SDS011;4352;49.404;11.092;2022-11-14T10:03:13;6.68;;;5.93;;
8628;SDS011;4352;49.404;11.092;2022-11-14T10:05:45;6.40;;;5.80;;
8628;SDS011;4352;49.404;11.092;2022-11-14T10:11:06;7.65;;;6.43;;
8628;SDS011;4352;49.404;11.092;2022-11-14T10:13:42;8.13;;;6.80;;
8628;SDS011;4352;49.404;11.092;2022-11-14T10:16:14;8.07;;;5.50;;
8628;SDS011;4352;49.404;11.092;2022-11-14T10:18:47;6.10;;;4.80;;
8628;SDS011;4352;49.404;11.092;2022-11-14T10:21:24;5.85;;;5.00;;
8628;SDS011;4352;49.404;11.092;2022-11-14T10:23:57;5.97;;;5.47;;
8628;SDS011;4352;49.404;11.092;2022-11-14T10:26:26;6.13;;;5.47;;
8628;SDS011;4352;49.404;11.092;2022-11-14T10:29:03;6.13;;;5.27;;
8628;SDS011;4352;49.404;11.092;2022-11-14T10:31:37;5.33;;;4.83;;
8628;SDS011;4352;49.404;11.092;2022-11-14T10:34:07;5.50;;;5.00;;
8628;SDS011;4352;49.404;11.092;2022-11-14T10:36:43;5.33;;;4.83;;
8628;SDS011;4352;49.404;11.092;2022-11-14T10:39:13;5.97;;;5.37;;
8628;SDS011;4352;49.404;11.092;2022-11-14T10:41:42;7.20;;;5.37;;
8628;SDS011;4352;49.404;11.092;2022-11-14T10:44:12;5.23;;;4.73;;
8628;SDS011;4352;49.404;11.092;2022-11-14T10:46:42;5.80;;;5.07;;
8628;SDS011;4352;49.404;11.092;2022-11-14T10:49:12;5.73;;;4.63;;
8628;SDS011;4352;49.404;11.092;2022-11-14T10:51:42;5.70;;;4.77;;
8628;SDS011;4352;49.404;11.092;2022-11-14T10:54:11;5.87;;;5.27;;
8628;SDS011;4352;49.404;11.092;2022-11-14T10:56:44;6.90;;;4.63;;
8628;SDS011;4352;49.404;11.092;2022-11-14T10:59:13;7.70;;;4.90;;
8628;SDS011;4352;49.404;11.092;2022-11-14T11:01:41;5.10;;;4.60;;
8628;SDS011;4352;49.404;11.092;2022-11-14T11:04:12;4.70;;;4.30;;
8628;SDS011;4352;49.404;11.092;2022-11-14T11:06:40;4.63;;;4.23;;
8628;SDS011;4352;49.404;11.092;2022-11-14T11:09:07;5.43;;;4.53;;
8628;SDS011;4352;49.404;11.092;2022-11-14T11:11:54;4.50;;;4.10;;
8628;SDS011;4352;49.404;11.092;2022-11-14T11:14:23;4.60;;;4.07;;
8628;SDS011;4352;49.404;11.092;2022-11-14T11:17:06;5.83;;;4.33;;
8628;SDS011;4352;49.404;11.092;2022-11-14T11:19:33;4.27;;;3.87;;
8628;SDS011;4352;49.404;11.092;2022-11-14T11:22:00;6.00;;;4.10;;
8628;SDS011;4352;49.404;11.092;2022-11-14T11:24:31;4.50;;;3.93;;
8628;SDS011;4352;49.404;11.092;2022-11-14T11:27:11;4.63;;;4.13;;
8628;SDS011;4352;49.404;11.092;2022-11-14T11:29:40;5.37;;;4.70;;
8628;SDS011;4352;49.404;11.092;2022-11-14T11:32:07;5.23;;;4.63;;
8628;SDS011;4352;49.404;11.092;2022-11-14T11:34:34;5.87;;;5.20;;
8628;SDS011;4352;49.404;11.092;2022-11-14T11:37:03;5.03;;;4.43;;
8628;SDS011;4352;49.404;11.092;2022-11-14T11:39:32;5.07;;;4.57;;
8628;SDS011;4352;49.404;11.092;2022-11-14T11:42:02;6.13;;;5.20;;
8628;SDS011;4352;49.404;11.092;2022-11-14T11:44:32;6.17;;;4.90;;
8628;SDS011;4352;49.404;11.092;2022-11-14T11:47:02;6.17;;;5.10;;
8628;SDS011;4352;49.404;11.092;2022-11-14T11:49:34;6.33;;;4.87;;
8628;SDS011;4352;49.404;11.092;2022-11-14T11:52:03;7.27;;;4.60;;
8628;SDS011;4352;49.404;11.092;2022-11-14T11:54:32;5.03;;;4.47;;
8628;SDS011;4352;49.404;11.092;2022-11-14T11:57:02;5.23;;;4.63;;
8628;SDS011;4352;49.404;11.092;2022-11-14T11:59:34;7.67;;;5.13;;
8628;SDS011;4352;49.404;11.092;2022-11-14T12:02:11;6.07;;;4.43;;
8628;SDS011;4352;49.404;11.092;2022-11-14T12:04:43;6.10;;;4.27;;
8628;SDS011;4352;49.404;11.092;2022-11-14T12:07:11;5.13;;;4.60;;
8628;SDS011;4352;49.404;11.092;2022-11-14T12:09:39;6.20;;;4.90;;
8628;SDS011;4352;49.404;11.092;2022-11-14T12:12:09;5.23;;;4.70;;
8628;SDS011;4352;49.404;11.092;2022-11-14T12:14:41;7.10;;;4.73;;
8628;SDS011;4352;49.404;11.092;2022-11-14T12:17:22;5.10;;;4.53;;
8628;SDS011;4352;49.404;11.092;2022-11-14T12:19:59;5.13;;;4.50;;
8628;SDS011;4352;49.404;11.092;2022-11-14T12:22:36;5.83;;;4.10;;
8628;SDS011;4352;49.404;11.092;2022-11-14T12:25:07;6.20;;;4.43;;
8628;SDS011;4352;49.404;11.092;2022-11-14T12:27:48;5.90;;;4.40;;
8628;SDS011;4352;49.404;11.092;2022-11-14T12:30:20;4.57;;;4.10;;
8628;SDS011;4352;49.404;11.092;2022-11-14T12:32:50;4.80;;;4.17;;
8628;SDS011;4352;49.404;11.092;2022-11-14T12:35:19;6.28;;;3.78;;
8628;SDS011;4352;49.404;11.092;2022-11-14T12:37:46;4.45;;;4.05;;
8628;SDS011;4352;49.404;11.092;2022-11-14T12:40:20;4.10;;;3.70;;
8628;SDS011;4352;49.404;11.092;2022-11-14T12:42:49;3.97;;;3.63;;
8628;SDS011;4352;49.404;11.092;2022-11-14T12:48:20;5.43;;;4.20;;
8628;SDS011;4352;49.404;11.092;2022-11-14T12:50:47;4.57;;;3.90;;
8628;SDS011;4352;49.404;11.092;2022-11-14T12:56:10;3.80;;;3.40;;
8628;SDS011;4352;49.404;11.092;2022-11-14T12:58:46;4.03;;;3.23;;
8628;SDS011;4352;49.404;11.092;2022-11-14T13:01:19;4.10;;;3.53;;
8628;SDS011;4352;49.404;11.092;2022-11-14T13:03:55;3.07;;;2.77;;
8628;SDS011;4352;49.404;11.092;2022-11-14T13:06:26;4.03;;;3.30;;
8628;SDS011;4352;49.404;11.092;2022-11-14T13:09:02;5.47;;;3.23;;
8628;SDS011;4352;49.404;11.092;2022-11-14T13:11:36;3.23;;;2.93;;
8628;SDS011;4352;49.404;11.092;2022-11-14T13:14:22;2.80;;;2.40;;
8628;SDS011;4352;49.404;11.092;2022-11-14T13:17:22;3.43;;;2.60;;
8628;SDS011;4352;49.404;11.092;2022-11-14T13:28:45;3.37;;;2.30;;
8628;SDS011;4352;49.404;11.092;2022-11-14T13:31:17;2.30;;;2.10;;
8628;SDS011;4352;49.404;11.092;2022-11-14T13:33:45;3.40;;;2.37;;
8628;SDS011;4352;49.404;11.092;2022-11-14T13:36:15;3.60;;;2.40;;
8628;SDS011;4352;49.404;11.092;2022-11-14T13:38:50;4.57;;;2.63;;
8628;SDS011;4352;49.404;11.092;2022-11-14T13:44:08;2.47;;;2.13;;
8628;SDS011;4352;49.404;11.092;2022-11-14T13:49:28;3.03;;;2.73;;
8628;SDS011;4352;49.404;11.092;2022-11-14T13:51:58;2.70;;;2.50;;
8628;SDS011;4352;49.404;11.092;2022-11-14T13:54:25;2.40;;;2.20;;
8628;SDS011;4352;49.404;11.092;2022-11-14T13:56:56;3.20;;;2.67;;
8628;SDS011;4352;49.404;11.092;2022-11-14T14:02:25;2.67;;;2.10;;
8628;SDS011;4352;49.404;11.092;2022-11-14T14:04:59;2.37;;;2.17;;
8628;SDS011;4352;49.404;11.092;2022-11-14T14:07:31;3.63;;;2.93;;
8628;SDS011;4352;49.404;11.092;2022-11-14T14:10:02;3.53;;;2.47;;
8628;SDS011;4352;49.404;11.092;2022-11-14T14:12:45;2.80;;;2.33;;
8628;SDS011;4352;49.404;11.092;2022-11-14T14:15:19;4.47;;;2.77;;
8628;SDS011;4352;49.404;11.092;2022-11-14T14:17:51;2.83;;;2.30;;
8628;SDS011;4352;49.404;11.092;2022-11-14T14:20:26;4.63;;;2.50;;
8628;SDS011;4352;49.404;11.092;2022-11-14T14:22:58;3.80;;;2.23;;
8628;SDS011;4352;49.404;11.092;2022-11-14T14:25:30;2.77;;;2.30;;
8628;SDS011;4352;49.404;11.092;2022-11-14T14:28:03;3.20;;;2.37;;
8628;SDS011;4352;49.404;11.092;2022-11-14T14:30:32;4.27;;;3.00;;
8628;SDS011;4352;49.404;11.092;2022-11-14T14:33:07;5.93;;;2.87;;
8628;SDS011;4352;49.404;11.092;2022-11-14T14:35:36;3.70;;;2.70;;
8628;SDS011;4352;49.404;11.092;2022-11-14T14:38:08;3.27;;;2.30;;
8628;SDS011;4352;49.404;11.092;2022-11-14T14:40:36;4.07;;;2.70;;
8628;SDS011;4352;49.404;11.092;2022-11-14T14:43:04;5.00;;;2.30;;
8628;SDS011;4352;49.404;11.092;2022-11-14T14:45:35;5.47;;;2.93;;
8628;SDS011;4352;49.404;11.092;2022-11-14T14:48:05;3.27;;;2.10;;
8628;SDS011;4352;49.404;11.092;2022-11-14T14:50:37;5.43;;;3.23;;
8628;SDS011;4352;49.404;11.092;2022-11-14T14:53:05;3.17;;;2.50;;
8628;SDS011;4352;49.404;11.092;2022-11-14T14:55:33;3.60;;;2.90;;
8628;SDS011;4352;49.404;11.092;2022-11-14T14:58:13;2.73;;;2.13;;
8628;SDS011;4352;49.404;11.092;2022-11-14T15:00:47;2.90;;;2.20;;
8628;SDS011;4352;49.404;11.092;2022-11-14T15:03:17;3.57;;;2.50;;
8628;SDS011;4352;49.404;11.092;2022-11-14T15:05:45;2.70;;;2.07;;
8628;SDS011;4352;49.404;11.092;2022-11-14T15:08:12;2.60;;;2.10;;
8628;SDS011;4352;49.404;11.092;2022-11-14T15:10:41;3.87;;;2.57;;
8628;SDS011;4352;49.404;11.092;2022-11-14T15:13:10;5.10;;;3.30;;
8628;SDS011;4352;49.404;11.092;2022-11-14T15:15:40;7.77;;;4.50;;
8628;SDS011;4352;49.404;11.092;2022-11-14T15:18:07;4.50;;;3.10;;
8628;SDS011;4352;49.404;11.092;2022-11-14T15:20:41;4.10;;;2.73;;